createdAt,value
2018-12-08T00:01:12.995Z,99786.43
2018-12-08T00:03:40.495Z,99792.02
2018-12-08T00:06:07.921Z,99796.94
2018-12-08T00:08:35.385Z,99787.27
2018-12-08T00:11:02.849Z,99783.67
2018-12-08T00:13:30.312Z,99781.55
2018-12-08T00:15:57.769Z,99779.63
2018-12-08T00:18:25.322Z,99787.02
2018-12-08T00:20:52.874Z,99783.75
2018-12-08T00:23:20.330Z,99793.03
2018-12-08T00:25:47.793Z,99794.22
2018-12-08T00:28:15.250Z,99782.08
2018-12-08T00:30:54.573Z,99796.05
2018-12-08T00:33:21.996Z,99795.25
2018-12-08T00:35:49.489Z,99790.36
2018-12-08T00:38:16.948Z,99793.15
2018-12-08T00:40:44.417Z,99791.81
2018-12-08T00:43:11.876Z,99789.05
2018-12-08T00:45:39.333Z,99802.16
2018-12-08T00:48:06.801Z,99794.13
2018-12-08T00:50:34.337Z,99786.30
2018-12-08T00:53:01.771Z,99799.89
2018-12-08T00:55:29.262Z,99801.35
2018-12-08T00:57:56.673Z,99796.28
2018-12-08T01:00:24.165Z,99790.72
2018-12-08T01:02:51.644Z,99785.94
2018-12-08T01:05:19.077Z,99795.27
2018-12-08T01:07:46.652Z,99775.95
2018-12-08T01:10:14.224Z,99776.42
2018-12-08T01:12:41.627Z,99783.11
2018-12-08T01:15:09.074Z,99773.29
2018-12-08T01:17:36.492Z,99782.58
2018-12-08T01:20:04.230Z,99781.73
2018-12-08T01:22:31.651Z,99793.52
2018-12-08T01:24:59.057Z,99787.11
2018-12-08T01:27:26.511Z,99791.03
2018-12-08T01:29:53.962Z,99784.16
2018-12-08T01:32:21.373Z,99794.80
2018-12-08T01:34:48.841Z,99797.23
2018-12-08T01:37:16.348Z,99798.05
2018-12-08T01:39:43.768Z,99788.93
2018-12-08T01:42:11.184Z,99790.30
2018-12-08T01:44:38.607Z,99793.75
2018-12-08T01:47:06.017Z,99795.39
2018-12-08T01:49:33.530Z,99792.33
2018-12-08T01:52:00.984Z,99807.86
2018-12-08T01:54:28.451Z,99803.77
2018-12-08T01:56:55.854Z,99808.56
2018-12-08T01:59:23.273Z,99809.38
2018-12-08T02:01:50.704Z,99811.48
2018-12-08T02:04:18.122Z,99820.17
2018-12-08T02:06:45.546Z,99822.30
2018-12-08T02:09:14.537Z,99813.80
2018-12-08T02:11:42.143Z,99809.87
2018-12-08T02:14:09.620Z,99805.15
2018-12-08T02:16:37.026Z,99810.98
2018-12-08T02:19:04.542Z,99808.67
2018-12-08T02:21:32.008Z,99810.20
2018-12-08T02:23:59.467Z,99800.86
2018-12-08T02:26:26.906Z,99813.14
2018-12-08T02:28:54.375Z,99798.73
2018-12-08T02:31:21.917Z,99803.33
2018-12-08T02:33:49.346Z,99808.89
2018-12-08T02:36:16.849Z,99805.15
2018-12-08T02:38:44.402Z,99804.19
2018-12-08T02:41:11.816Z,99796.63
2018-12-08T02:43:39.305Z,99806.64
2018-12-08T02:46:06.880Z,99807.81
2018-12-08T02:48:34.407Z,99801.14
2018-12-08T02:51:01.834Z,99801.78
2018-12-08T02:53:29.373Z,99796.08
2018-12-08T02:55:56.817Z,99804.59
2018-12-08T02:58:24.252Z,99804.08
2018-12-08T03:00:51.717Z,99786.23
2018-12-08T03:03:19.144Z,99786.41
2018-12-08T03:05:46.612Z,99782.63
2018-12-08T03:08:14.089Z,99773.31
2018-12-08T03:10:41.553Z,99761.81
2018-12-08T03:13:09.008Z,99761.12
2018-12-08T03:15:36.415Z,99761.76
2018-12-08T03:18:03.918Z,99763.91
2018-12-08T03:20:31.487Z,99748.14
2018-12-08T03:22:58.921Z,99756.99
2018-12-08T03:25:26.395Z,99743.38
2018-12-08T03:27:53.853Z,99747.31
2018-12-08T03:30:21.276Z,99734.70
2018-12-08T03:32:48.763Z,99732.73
2018-12-08T03:35:16.205Z,99730.48
2018-12-08T03:37:43.689Z,99726.07
2018-12-08T03:40:11.235Z,99729.55
2018-12-08T03:42:38.686Z,99725.31
2018-12-08T03:45:06.226Z,99726.31
2018-12-08T03:47:33.706Z,99712.05
2018-12-08T03:50:01.157Z,99718.95
2018-12-08T03:52:28.610Z,99716.16
2018-12-08T03:54:56.092Z,99718.30
2018-12-08T03:57:23.529Z,99714.55
2018-12-08T03:59:51.082Z,99715.22
2018-12-08T04:02:18.579Z,99711.94
2018-12-08T04:04:46.002Z,99715.23
2018-12-08T04:07:13.423Z,99719.84
2018-12-08T04:09:40.924Z,99713.61
2018-12-08T04:12:08.341Z,99708.05
2018-12-08T04:14:35.829Z,99717.05
2018-12-08T04:17:03.293Z,99708.73
2018-12-08T04:19:30.855Z,99704.12
2018-12-08T04:21:58.298Z,99707.88
2018-12-08T04:24:25.880Z,99699.20
2018-12-08T04:26:53.319Z,99694.45
2018-12-08T04:29:20.740Z,99697.25
2018-12-08T04:31:48.260Z,99685.27
2018-12-08T04:34:15.689Z,99679.88
2018-12-08T04:36:43.158Z,99673.15
2018-12-08T04:39:10.589Z,99669.86
2018-12-08T04:41:38.064Z,99678.53
2018-12-08T04:44:05.527Z,99682.47
2018-12-08T04:46:32.954Z,99677.72
2018-12-08T04:49:00.444Z,99677.72
2018-12-08T04:51:27.881Z,99676.59
2018-12-08T04:53:55.354Z,99677.90
2018-12-08T04:56:22.776Z,99678.71
2018-12-08T04:58:50.202Z,99689.02
2018-12-08T05:01:17.731Z,99676.08
2018-12-08T05:03:45.289Z,99677.70
2018-12-08T05:06:12.708Z,99674.91
2018-12-08T05:08:40.125Z,99675.89
2018-12-08T05:11:07.547Z,99664.09
2018-12-08T05:13:34.957Z,99661.62
2018-12-08T05:16:02.472Z,99669.98
2018-12-08T05:18:29.930Z,99660.98
2018-12-08T05:20:57.442Z,99664.59
2018-12-08T05:23:24.844Z,99656.41
2018-12-08T05:25:52.307Z,99659.22
2018-12-08T05:28:19.743Z,99655.78
2018-12-08T05:30:47.215Z,99651.84
2018-12-08T05:33:14.661Z,99659.86
2018-12-08T05:35:42.109Z,99658.90
2018-12-08T05:38:09.573Z,99649.37
2018-12-08T05:40:37.033Z,99645.75
2018-12-08T05:43:04.596Z,99653.80
2018-12-08T05:45:31.997Z,99648.23
2018-12-08T05:47:59.454Z,99657.05
2018-12-08T05:50:26.861Z,99657.41
2018-12-08T05:52:54.350Z,99657.91
2018-12-08T05:55:21.895Z,99652.13
2018-12-08T05:57:49.353Z,99642.95
2018-12-08T06:00:16.955Z,99644.58
2018-12-08T06:02:44.383Z,99647.55
2018-12-08T06:05:11.793Z,99647.38
2018-12-08T06:07:39.281Z,99644.08
2018-12-08T06:10:06.718Z,99642.30
2018-12-08T06:12:34.192Z,99619.17
2018-12-08T06:15:01.631Z,99631.64
2018-12-08T06:17:29.081Z,99644.92
2018-12-08T06:19:56.563Z,99648.38
2018-12-08T06:22:24.019Z,99648.23
2018-12-08T06:24:51.452Z,99645.92
2018-12-08T06:27:19.136Z,99640.68
2018-12-08T06:29:46.672Z,99638.20
2018-12-08T06:32:14.088Z,99632.31
2018-12-08T06:34:41.608Z,99635.26
2018-12-08T06:37:09.045Z,99637.20
2018-12-08T06:39:36.517Z,99637.38
2018-12-08T06:42:03.929Z,99628.70
2018-12-08T06:44:31.425Z,99628.70
2018-12-08T06:46:58.833Z,99621.02
2018-12-08T06:49:26.315Z,99622.83
2018-12-08T06:51:53.725Z,99622.15
2018-12-08T06:54:21.144Z,99621.52
2018-12-08T06:56:48.609Z,99626.44
2018-12-08T06:59:16.079Z,99622.33
2018-12-08T07:01:43.485Z,99638.23
2018-12-08T07:04:10.896Z,99613.82
2018-12-08T07:06:38.329Z,99624.80
2018-12-08T07:09:06.327Z,99612.33
2018-12-08T07:11:33.871Z,99601.84
2018-12-08T07:14:01.388Z,99586.45
2018-12-08T07:16:28.820Z,99593.02
2018-12-08T07:18:56.343Z,99600.21
2018-12-08T07:21:23.889Z,99593.51
2018-12-08T07:23:51.314Z,99589.89
2018-12-08T07:26:18.752Z,99587.59
2018-12-08T07:28:46.273Z,99578.41
2018-12-08T07:31:13.680Z,99588.27
2018-12-08T07:33:41.288Z,99580.22
2018-12-08T07:36:08.733Z,99599.08
2018-12-08T07:38:36.171Z,99594.97
2018-12-08T07:41:03.649Z,99585.80
2018-12-08T07:43:31.069Z,99592.17
2018-12-08T07:45:58.575Z,99600.86
2018-12-08T07:48:26.004Z,99601.35
2018-12-08T07:50:53.538Z,99587.59
2018-12-08T07:53:21.047Z,99585.80
2018-12-08T07:55:48.483Z,99586.90
2018-12-08T07:58:15.959Z,99597.56
2018-12-08T08:00:43.387Z,99581.66
2018-12-08T08:03:10.819Z,99598.38
2018-12-08T08:05:38.317Z,99586.89
2018-12-08T08:08:05.881Z,99567.06
2018-12-08T08:10:33.352Z,99564.75
2018-12-08T08:13:00.824Z,99564.76
2018-12-08T08:15:28.271Z,99573.78
2018-12-08T08:17:55.705Z,99579.52
2018-12-08T08:20:23.169Z,99578.67
2018-12-08T08:22:50.638Z,99575.23
2018-12-08T08:25:18.077Z,99570.17
2018-12-08T08:27:45.542Z,99567.73
2018-12-08T08:30:12.989Z,99568.69
2018-12-08T08:32:40.406Z,99564.61
2018-12-08T08:35:08.033Z,99567.37
2018-12-08T08:37:35.469Z,99550.34
2018-12-08T08:40:04.285Z,99549.06
2018-12-08T08:42:31.810Z,99551.01
2018-12-08T08:44:59.382Z,99544.31
2018-12-08T08:47:26.942Z,99537.92
2018-12-08T08:49:54.645Z,99552.98
2018-12-08T08:52:22.149Z,99559.37
2018-12-08T08:54:49.623Z,99556.28
2018-12-08T08:57:17.081Z,99553.34
2018-12-08T08:59:44.508Z,99535.30
2018-12-08T09:02:11.992Z,99539.73
2018-12-08T09:04:39.449Z,99544.80
2018-12-08T09:07:06.913Z,99542.50
2018-12-08T09:09:34.368Z,99548.23
2018-12-08T09:12:01.805Z,99528.74
2018-12-08T09:14:29.239Z,99534.30
2018-12-08T09:16:56.657Z,99527.61
2018-12-08T09:19:24.078Z,99523.17
2018-12-08T09:21:51.510Z,99534.16
2018-12-08T09:24:18.943Z,99537.94
2018-12-08T09:26:47.018Z,99530.23
2018-12-08T09:29:14.447Z,99515.30
2018-12-08T09:31:41.937Z,99525.98
2018-12-08T09:34:09.655Z,99523.67
2018-12-08T09:36:37.227Z,99532.36
2018-12-08T09:39:06.939Z,99524.84
2018-12-08T09:41:34.371Z,99517.30
2018-12-08T09:44:01.862Z,99514.81
2018-12-08T09:46:29.386Z,99518.08
2018-12-08T09:48:56.795Z,99524.14
2018-12-08T09:51:24.389Z,99527.91
2018-12-08T09:53:51.880Z,99527.59
2018-12-08T09:56:19.312Z,99534.48
2018-12-08T09:58:46.876Z,99529.09
2018-12-08T10:01:14.429Z,99532.17
2018-12-08T10:03:42.005Z,99522.86
2018-12-08T10:06:09.429Z,99524.66
2018-12-08T10:08:36.905Z,99523.17
2018-12-08T10:11:04.376Z,99524.98
2018-12-08T10:13:31.825Z,99524.65
2018-12-08T10:15:59.250Z,99517.42
2018-12-08T10:18:26.733Z,99529.41
2018-12-08T10:20:54.169Z,99527.44
2018-12-08T10:23:21.664Z,99530.73
2018-12-08T10:25:49.118Z,99525.62
2018-12-08T10:28:16.537Z,99527.44
2018-12-08T10:30:44.015Z,99518.10
2018-12-08T10:33:11.493Z,99526.28
2018-12-08T10:35:38.948Z,99534.00
2018-12-08T10:38:06.416Z,99534.98
2018-12-08T10:40:33.889Z,99541.05
2018-12-08T10:43:01.354Z,99528.11
2018-12-08T10:45:28.836Z,99524.48
2018-12-08T10:47:56.331Z,99530.23
2018-12-08T10:50:23.777Z,99530.55
2018-12-08T10:52:51.256Z,99526.63
2018-12-08T10:55:18.811Z,99519.56
2018-12-08T10:57:46.271Z,99522.69
2018-12-08T11:00:15.710Z,99532.86
2018-12-08T11:02:45.182Z,99512.69
2018-12-08T11:05:12.713Z,99519.24
2018-12-08T11:07:40.181Z,99522.02
2018-12-08T11:10:07.585Z,99524.67
2018-12-08T11:12:35.089Z,99522.38
2018-12-08T11:15:02.575Z,99528.76
2018-12-08T11:17:30.023Z,99530.39
2018-12-08T11:19:57.471Z,99521.70
2018-12-08T11:22:25.139Z,99520.06
2018-12-08T11:24:52.577Z,99518.23
2018-12-08T11:27:20.034Z,99520.19
2018-12-08T11:29:47.515Z,99532.35
2018-12-08T11:32:14.972Z,99533.67
2018-12-08T11:34:42.407Z,99538.91
2018-12-08T11:37:09.834Z,99536.45
2018-12-08T11:39:37.331Z,99533.33
2018-12-08T11:42:04.749Z,99522.16
2018-12-08T11:44:32.189Z,99539.56
2018-12-08T11:46:59.864Z,99531.51
2018-12-08T11:49:27.284Z,99526.58
2018-12-08T11:51:54.728Z,99545.14
2018-12-08T11:54:22.207Z,99537.57
2018-12-08T11:56:49.612Z,99543.80
2018-12-08T11:59:17.037Z,99534.09
2018-12-08T12:01:44.496Z,99536.70
2018-12-08T12:04:12.010Z,99546.39
2018-12-08T12:06:39.464Z,99533.78
2018-12-08T12:09:06.874Z,99530.45
2018-12-08T12:11:34.302Z,99549.96
2018-12-08T12:14:01.716Z,99537.17
2018-12-08T12:16:29.134Z,99542.56
2018-12-08T12:18:56.563Z,99536.81
2018-12-08T12:21:23.982Z,99529.91
2018-12-08T12:23:51.458Z,99532.16
2018-12-08T12:26:18.897Z,99531.61
2018-12-08T12:28:46.473Z,99521.92
2018-12-08T12:31:13.960Z,99521.75
2018-12-08T12:33:41.498Z,99524.41
2018-12-08T12:36:08.933Z,99531.30
2018-12-08T12:38:36.597Z,99532.81
2018-12-08T12:41:04.056Z,99530.42
2018-12-08T12:43:31.520Z,99525.64
2018-12-08T12:45:58.954Z,99537.50
2018-12-08T12:48:26.539Z,99540.44
2018-12-08T12:50:53.985Z,99530.93
2018-12-08T12:53:22.164Z,99539.89
2018-12-08T12:55:49.618Z,99541.05
2018-12-08T12:58:17.039Z,99532.31
2018-12-08T13:00:44.478Z,99537.27
2018-12-08T13:03:11.989Z,99527.84
2018-12-08T13:05:39.463Z,99535.39
2018-12-08T13:08:06.879Z,99537.89
2018-12-08T13:10:34.365Z,99529.69
2018-12-08T13:13:01.835Z,99541.55
2018-12-08T13:15:29.251Z,99534.63
2018-12-08T13:17:56.695Z,99544.36
2018-12-08T13:20:24.213Z,99551.24
2018-12-08T13:22:51.616Z,99545.52
2018-12-08T13:25:21.660Z,99540.59
2018-12-08T13:27:49.128Z,99547.52
2018-12-08T13:30:16.686Z,99548.64
2018-12-08T13:32:44.260Z,99547.85
2018-12-08T13:35:33.392Z,99542.30
2018-12-08T13:38:00.804Z,99553.33
2018-12-08T13:40:28.413Z,99561.20
2018-12-08T13:42:55.895Z,99546.95
2018-12-08T13:45:23.336Z,99545.66
2018-12-08T13:47:50.859Z,99538.59
2018-12-08T13:50:18.360Z,99536.13
2018-12-08T13:52:45.808Z,99545.66
2018-12-08T13:55:13.372Z,99541.73
2018-12-08T13:57:40.792Z,99540.89
2018-12-08T14:00:08.325Z,99538.11
2018-12-08T14:02:35.738Z,99536.77
2018-12-08T14:05:03.204Z,99535.77
2018-12-08T14:07:30.660Z,99526.74
2018-12-08T14:09:58.121Z,99530.19
2018-12-08T14:12:25.572Z,99522.63
2018-12-08T14:14:53.017Z,99519.49
2018-12-08T14:17:20.437Z,99516.39
2018-12-08T14:19:47.956Z,99514.58
2018-12-08T14:22:15.402Z,99527.74
2018-12-08T14:24:42.822Z,99522.66
2018-12-08T14:27:10.316Z,99521.03
2018-12-08T14:29:37.759Z,99516.59
2018-12-08T14:32:05.257Z,99533.01
2018-12-08T14:34:32.773Z,99529.75
2018-12-08T14:37:00.243Z,99527.28
2018-12-08T14:39:27.679Z,99529.20
2018-12-08T14:41:55.142Z,99524.95
2018-12-08T14:44:22.647Z,99520.36
2018-12-08T14:46:50.095Z,99525.27
2018-12-08T14:49:17.514Z,99520.36
2018-12-08T14:51:44.963Z,99521.48
2018-12-08T14:54:12.400Z,99524.11
2018-12-08T14:56:39.974Z,99518.20
2018-12-08T14:59:07.393Z,99504.09
2018-12-08T15:01:34.932Z,99512.80
2018-12-08T15:04:02.383Z,99506.25
2018-12-08T15:06:29.874Z,99520.85
2018-12-08T15:08:57.390Z,99515.13
2018-12-08T15:11:25.782Z,99523.48
2018-12-08T15:13:53.336Z,99520.86
2018-12-08T15:16:20.778Z,99523.95
2018-12-08T15:18:48.241Z,99525.95
2018-12-08T15:21:15.670Z,99525.95
2018-12-08T15:23:43.151Z,99527.91
2018-12-08T15:26:10.701Z,99524.81
2018-12-08T15:28:38.156Z,99536.14
2018-12-08T15:31:05.739Z,99525.34
2018-12-08T15:33:33.196Z,99527.30
2018-12-08T15:36:00.624Z,99519.61
2018-12-08T15:38:28.062Z,99517.30
2018-12-08T15:40:55.556Z,99520.58
2018-12-08T15:43:22.978Z,99519.11
2018-12-08T15:45:50.469Z,99521.42
2018-12-08T15:48:17.908Z,99516.16
2018-12-08T15:50:45.377Z,99511.06
2018-12-08T15:53:12.811Z,99515.00
2018-12-08T15:55:40.289Z,99520.59
2018-12-08T15:58:07.737Z,99517.95
2018-12-08T16:00:35.253Z,99513.17
2018-12-08T16:03:02.770Z,99521.69
2018-12-08T16:05:30.196Z,99519.54
2018-12-08T16:07:57.604Z,99514.28
2018-12-08T16:10:25.037Z,99514.45
2018-12-08T16:12:52.467Z,99498.53
2018-12-08T16:15:19.888Z,99493.59
2018-12-08T16:17:47.323Z,99490.28
2018-12-08T16:20:14.746Z,99488.15
2018-12-08T16:22:42.247Z,99479.77
2018-12-08T16:25:09.797Z,99471.73
2018-12-08T16:27:37.337Z,99475.02
2018-12-08T16:30:06.444Z,99465.64
2018-12-08T16:32:35.950Z,99475.95
2018-12-08T16:35:04.102Z,99453.78
2018-12-08T16:37:31.665Z,99447.05
2018-12-08T16:39:59.131Z,99448.19
2018-12-08T16:42:26.611Z,99442.45
2018-12-08T16:44:54.076Z,99437.39
2018-12-08T16:47:21.598Z,99435.23
2018-12-08T16:49:49.124Z,99438.36
2018-12-08T16:52:16.740Z,99423.59
2018-12-08T16:54:44.267Z,99428.20
2018-12-08T16:57:11.671Z,99416.50
2018-12-08T16:59:39.200Z,99420.09
2018-12-08T17:02:06.764Z,99410.23
2018-12-08T17:04:34.220Z,99409.92
2018-12-08T17:07:01.663Z,99398.10
2018-12-08T17:09:29.079Z,99394.97
2018-12-08T17:11:56.591Z,99391.50
2018-12-08T17:14:24.065Z,99384.11
2018-12-08T17:16:51.486Z,99387.91
2018-12-08T17:19:18.946Z,99381.33
2018-12-08T17:21:46.419Z,99360.94
2018-12-08T17:24:13.861Z,99363.22
2018-12-08T17:26:41.342Z,99342.34
2018-12-08T17:29:08.860Z,99348.41
2018-12-08T17:31:36.289Z,99341.34
2018-12-08T17:34:03.789Z,99329.85
2018-12-08T17:36:31.269Z,99324.09
2018-12-08T17:38:58.735Z,99318.14
2018-12-08T17:41:26.287Z,99321.73
2018-12-08T17:43:53.727Z,99304.48
2018-12-08T17:46:21.208Z,99295.80
2018-12-08T17:48:48.672Z,99287.26
2018-12-08T17:51:16.090Z,99273.95
2018-12-08T17:53:43.569Z,99274.93
2018-12-08T17:56:11.005Z,99254.72
2018-12-08T17:58:38.474Z,99253.05
2018-12-08T18:01:05.961Z,99245.80
2018-12-08T18:03:33.374Z,99237.73
2018-12-08T18:06:00.837Z,99237.70
2018-12-08T18:08:28.321Z,99237.20
2018-12-08T18:10:55.800Z,99232.61
2018-12-08T18:13:23.213Z,99229.82
2018-12-08T18:15:50.682Z,99226.50
2018-12-08T18:18:18.136Z,99230.28
2018-12-08T18:20:45.557Z,99201.88
2018-12-08T18:23:13.155Z,99202.30
2018-12-08T18:25:40.619Z,99194.97
2018-12-08T18:28:08.040Z,99191.73
2018-12-08T18:30:35.452Z,99193.27
2018-12-08T18:33:02.854Z,99180.48
2018-12-08T18:35:30.335Z,99171.20
2018-12-08T18:37:57.737Z,99161.08
2018-12-08T18:40:25.246Z,99150.23
2018-12-08T18:42:52.707Z,99138.09
2018-12-08T18:45:20.123Z,99128.59
2018-12-08T18:47:47.598Z,99124.66
2018-12-08T18:50:15.018Z,99112.64
2018-12-08T18:52:42.535Z,99097.88
2018-12-08T18:55:09.981Z,99095.40
2018-12-08T18:57:37.455Z,99098.84
2018-12-08T19:00:08.280Z,99097.97
2018-12-08T19:02:35.737Z,99098.28
2018-12-08T19:05:03.306Z,99095.96
2018-12-08T19:07:30.727Z,99100.04
2018-12-08T19:09:58.173Z,99094.42
2018-12-08T19:12:25.762Z,99101.80
2018-12-08T19:14:53.332Z,99087.35
2018-12-08T19:17:20.772Z,99097.81
2018-12-08T19:19:48.252Z,99081.56
2018-12-08T19:22:15.742Z,99083.36
2018-12-08T19:24:43.167Z,99062.03
2018-12-08T19:27:10.599Z,99049.25
2018-12-08T19:29:38.019Z,99042.74
2018-12-08T19:32:05.430Z,98999.76
2018-12-08T19:34:33.012Z,99012.89
2018-12-08T19:37:00.547Z,98998.14
2018-12-08T19:39:28.073Z,98975.81
2018-12-08T19:41:55.515Z,98970.05
2018-12-08T19:44:23.017Z,98969.24
2018-12-08T19:46:50.482Z,98954.29
2018-12-08T19:49:18.025Z,98949.20
2018-12-08T19:51:45.491Z,98939.03
2018-12-08T19:54:12.955Z,98929.13
2018-12-08T19:56:40.407Z,98912.77
2018-12-08T19:59:07.848Z,98909.26
2018-12-08T20:01:35.260Z,98896.30
2018-12-08T20:04:02.704Z,98879.22
2018-12-08T20:06:30.109Z,98878.91
2018-12-08T20:08:57.651Z,98880.73
2018-12-08T20:11:25.077Z,98861.53
2018-12-08T20:13:52.504Z,98863.95
2018-12-08T20:16:20.070Z,98858.84
2018-12-08T20:18:47.483Z,98854.89
2018-12-08T20:21:14.991Z,98854.59
2018-12-08T20:23:42.449Z,98851.77
2018-12-08T20:26:09.870Z,98830.75
2018-12-08T20:28:37.280Z,98836.81
2018-12-08T20:31:04.716Z,98828.49
2018-12-08T20:33:32.151Z,98829.20
2018-12-08T20:35:59.605Z,98826.58
2018-12-08T20:38:27.084Z,98821.49
2018-12-08T20:40:54.536Z,98812.00
2018-12-08T20:43:21.977Z,98803.11
2018-12-08T20:45:49.432Z,98790.10
2018-12-08T20:48:17.271Z,98786.59
2018-12-08T20:50:45.246Z,98771.77
2018-12-08T20:53:12.770Z,98773.20
2018-12-08T20:55:40.213Z,98790.71
2018-12-08T20:58:07.648Z,98788.52
2018-12-08T21:00:35.073Z,98776.64
2018-12-08T21:03:02.514Z,98775.22
2018-12-08T21:05:29.917Z,98777.81
2018-12-08T21:07:57.365Z,98774.42
2018-12-08T21:10:24.821Z,98777.29
2018-12-08T21:12:52.296Z,98738.55
2018-12-08T21:15:19.709Z,98722.00
2018-12-08T21:17:47.196Z,98684.91
2018-12-08T21:20:14.657Z,98688.86
2018-12-08T21:22:42.117Z,98692.05
2018-12-08T21:25:09.668Z,98682.36
2018-12-08T21:27:37.139Z,98678.25
2018-12-08T21:30:05.620Z,98675.26
2018-12-08T21:32:33.038Z,98670.73
2018-12-08T21:35:00.459Z,98666.73
2018-12-08T21:37:27.903Z,98660.09
2018-12-08T21:39:55.345Z,98659.41
2018-12-08T21:42:22.793Z,98656.66
2018-12-08T21:44:50.358Z,98653.22
2018-12-08T21:47:17.784Z,98649.41
2018-12-08T21:49:45.220Z,98638.70
2018-12-08T21:52:13.500Z,98649.16
2018-12-08T21:54:40.944Z,98660.14
2018-12-08T21:57:08.466Z,98644.89
2018-12-08T21:59:35.899Z,98644.39
2018-12-08T22:02:03.369Z,98649.54
2018-12-08T22:04:30.766Z,98642.14
2018-12-08T22:06:58.280Z,98655.73
2018-12-08T22:09:25.681Z,98638.88
2018-12-08T22:11:53.112Z,98632.62
2018-12-08T22:14:20.644Z,98636.37
2018-12-08T22:16:48.115Z,98624.69
2018-12-08T22:19:15.567Z,98623.42
2018-12-08T22:21:42.982Z,98603.30
2018-12-08T22:24:10.405Z,98595.52
2018-12-08T22:26:37.829Z,98588.83
2018-12-08T22:29:05.298Z,98581.45
2018-12-08T22:31:32.864Z,98574.50
2018-12-08T22:34:00.302Z,98584.33
2018-12-08T22:36:27.719Z,98584.83
2018-12-08T22:38:55.154Z,98582.00
2018-12-08T22:41:22.571Z,98580.30
2018-12-08T22:43:49.987Z,98583.34
2018-12-08T22:46:17.519Z,98583.97
2018-12-08T22:48:44.941Z,98586.09
2018-12-08T22:51:12.420Z,98571.86
2018-12-08T22:53:39.864Z,98572.22
2018-12-08T22:56:07.322Z,98566.16
2018-12-08T22:58:34.783Z,98575.70
2018-12-08T23:01:02.346Z,98564.08
2018-12-08T23:03:29.765Z,98562.59
2018-12-08T23:05:57.181Z,98574.63
2018-12-08T23:08:24.588Z,98567.15
2018-12-08T23:10:52.073Z,98561.50
2018-12-08T23:13:19.718Z,98565.34
2018-12-08T23:15:47.139Z,98553.63
2018-12-08T23:18:14.728Z,98533.73
2018-12-08T23:20:42.188Z,98566.48
2018-12-08T23:23:09.654Z,98582.25
2018-12-08T23:25:37.114Z,98572.25
2018-12-08T23:28:04.562Z,98568.30
2018-12-08T23:30:32.006Z,98572.84
2018-12-08T23:32:59.418Z,98566.77
2018-12-08T23:35:26.955Z,98563.73
2018-12-08T23:37:54.433Z,98568.06
2018-12-08T23:40:21.885Z,98547.84
2018-12-08T23:42:49.407Z,98551.39
2018-12-08T23:45:16.839Z,98546.47
2018-12-08T23:47:44.335Z,98553.45
2018-12-08T23:50:11.907Z,98548.78
2018-12-08T23:52:39.343Z,98549.90
2018-12-08T23:55:06.912Z,98556.26
2018-12-08T23:57:34.375Z,98566.98
